KLWT/LWT METAR and TAF weather

Enter ICAO airport designator
Station Type Date Time Source
KLWT METAR 2019/04/18 14:54 UTC NOAA

KLWT 181454Z AUTO 26011KT 10SM CLR 07/M02 A3020 RMK AO2 SLP229 T00721017 51008


Station Type Date Time Source
KLWT Decoded METAR 2019/04/18 14:54 UTC NOAA

LEWISTOWN MUNICIPAL AIRPORT , MT, United States (KLWT) 47-03N 109-27W
Apr 18, 2019 - 10:54 AM EDT / 2019.04.18 1454 UTC
Wind: from the W (260 degrees) at 13 MPH (11 KT):0
Visibility: 10 mile(s):0
Sky conditions: clear
Temperature: 45.0 F (7.2 C)
Dew Point: 28.9 F (-1.7 C)
Relative Humidity: 53%
Pressure (altimeter): 30.2 in. Hg (1022 hPa)
Pressure tendency: 0.02 inches (0.8 hPa) higher than three hours ago
ob: KLWT 181454Z AUTO 26011KT 10SM CLR 07/M02 A3020 RMK AO2 SLP229 T00721017 51008
cycle: 15

Station Type Date Time Source
KLWT TAF 2019/04/18 12:48 UTC NOAA

TAF KLWT 181145Z 1812/1912 25007KT P6SM SCT100 WS020/30035KT
FM181600 28015G25KT P6SM FEW100
FM190200 23009KT P6SM FEW100 WS020/28035KT

Example: see airport list